createdAt,value
2019-01-19T00:02:35.155Z,24.97
2019-01-19T00:05:47.344Z,22.00
2019-01-19T00:08:54.206Z,24.93
2019-01-19T00:12:20.370Z,23.27
2019-01-19T00:15:21.526Z,22.90
2019-01-19T00:18:35.347Z,24.50
2019-01-19T00:21:43.663Z,22.97
2019-01-19T00:24:44.604Z,23.50
2019-01-19T00:27:57.943Z,24.30
2019-01-19T00:30:49.236Z,22.50
2019-01-19T00:33:54.987Z,22.93
2019-01-19T00:36:59.127Z,22.50
2019-01-19T00:40:13.068Z,22.43
2019-01-19T00:43:16.596Z,22.53
2019-01-19T00:46:55.371Z,22.60
2019-01-19T00:49:49.703Z,23.23
2019-01-19T00:52:43.364Z,21.83
2019-01-19T00:55:58.694Z,22.10
2019-01-19T00:58:55.667Z,23.27
2019-01-19T01:01:55.440Z,23.00
2019-01-19T01:04:52.644Z,25.03
2019-01-19T01:07:59.907Z,23.40
2019-01-19T01:10:51.391Z,21.10
2019-01-19T01:13:58.706Z,21.13
2019-01-19T01:17:05.576Z,21.53
2019-01-19T01:19:48.624Z,20.90
2019-01-19T01:22:57.741Z,20.63
2019-01-19T01:26:21.163Z,21.80
2019-01-19T01:29:41.494Z,22.40
2019-01-19T01:32:39.732Z,23.33
2019-01-19T01:35:59.894Z,22.30
2019-01-19T01:39:00.016Z,21.93
2019-01-19T01:42:07.368Z,19.83
2019-01-19T01:44:56.671Z,20.33
2019-01-19T01:48:07.762Z,21.30
2019-01-19T01:51:06.539Z,19.13
2019-01-19T01:54:17.731Z,20.50
2019-01-19T01:56:47.963Z,19.20
2019-01-19T01:59:48.088Z,22.27
2019-01-19T02:02:32.527Z,20.40
2019-01-19T02:05:40.233Z,20.60
2019-01-19T02:08:17.804Z,21.48
2019-01-19T02:11:25.400Z,19.10
2019-01-19T02:17:03.213Z,20.57
2019-01-19T02:20:11.460Z,21.90
2019-01-19T02:23:20.359Z,20.93
2019-01-19T02:26:20.931Z,20.57
2019-01-19T02:29:14.723Z,19.57
2019-01-19T02:31:54.248Z,20.70
2019-01-19T02:35:01.336Z,19.70
2019-01-19T02:37:49.875Z,19.90
2019-01-19T02:40:40.660Z,20.27
2019-01-19T02:43:25.617Z,20.40
2019-01-19T02:46:33.122Z,21.10
2019-01-19T02:49:59.928Z,19.83
2019-01-19T02:53:22.080Z,20.73
2019-01-19T02:56:06.647Z,19.43
2019-01-19T02:59:00.881Z,20.17
2019-01-19T03:02:10.699Z,19.07
2019-01-19T03:04:46.436Z,20.32
2019-01-19T03:08:12.736Z,19.53
2019-01-19T03:11:13.245Z,20.37
2019-01-19T03:14:27.693Z,20.60
2019-01-19T03:17:43.679Z,19.77
2019-01-19T03:20:47.167Z,20.10
2019-01-19T03:24:01.467Z,19.73
2019-01-19T03:26:58.576Z,20.37
2019-01-19T03:29:37.674Z,17.87
2019-01-19T03:32:37.640Z,19.17
2019-01-19T03:35:39.688Z,17.60
2019-01-19T03:39:03.111Z,19.20
2019-01-19T03:42:05.022Z,19.00
2019-01-19T03:45:00.214Z,18.27
2019-01-19T03:47:55.699Z,19.07
2019-01-19T03:50:50.675Z,19.10
2019-01-19T03:53:39.876Z,18.87
2019-01-19T03:56:41.351Z,18.43
2019-01-19T04:00:06.967Z,19.03
2019-01-19T04:03:04.129Z,16.37
2019-01-19T04:05:49.094Z,17.20
2019-01-19T04:09:08.950Z,19.30
2019-01-19T04:12:29.045Z,18.87
2019-01-19T04:15:20.904Z,17.67
2019-01-19T04:18:05.378Z,17.73
2019-01-19T04:21:04.236Z,17.10
2019-01-19T04:23:34.656Z,19.33
2019-01-19T04:26:16.874Z,17.90
2019-01-19T04:28:47.558Z,17.70
2019-01-19T04:31:17.733Z,17.77
2019-01-19T04:33:48.256Z,18.43
2019-01-19T04:36:21.997Z,18.60
2019-01-19T04:38:52.431Z,19.50
2019-01-19T04:41:22.741Z,18.23
2019-01-19T04:43:52.897Z,18.37
2019-01-19T04:46:24.799Z,16.10
2019-01-19T04:48:55.108Z,17.60
2019-01-19T04:51:25.320Z,18.13
2019-01-19T04:53:56.992Z,17.37
2019-01-19T04:56:27.143Z,18.73
2019-01-19T04:58:57.337Z,17.70
2019-01-19T05:01:27.516Z,17.60
2019-01-19T05:03:57.700Z,16.03
2019-01-19T05:06:30.510Z,16.52
2019-01-19T05:08:59.783Z,16.82
2019-01-19T05:11:29.960Z,17.10
2019-01-19T05:14:00.188Z,16.80
2019-01-19T05:16:30.398Z,16.45
2019-01-19T05:19:00.553Z,15.35
2019-01-19T05:21:30.944Z,15.90
2019-01-19T05:24:01.106Z,17.00
2019-01-19T05:26:31.363Z,16.33
2019-01-19T05:29:01.572Z,15.17
2019-01-19T05:31:31.747Z,16.10
2019-01-19T05:34:01.971Z,15.00
2019-01-19T05:36:38.208Z,15.43
2019-01-19T05:39:05.559Z,16.77
2019-01-19T05:41:35.767Z,15.25
2019-01-19T05:44:06.047Z,14.90
2019-01-19T05:46:36.277Z,15.60
2019-01-19T05:49:06.462Z,14.07
2019-01-19T05:51:36.708Z,15.25
2019-01-19T05:54:06.920Z,15.13
2019-01-19T05:56:38.589Z,14.27
2019-01-19T05:59:08.768Z,13.88
2019-01-19T06:01:38.956Z,14.38
2019-01-19T06:04:09.203Z,14.25
2019-01-19T06:06:46.683Z,13.07
2019-01-19T06:09:11.276Z,14.00
2019-01-19T06:11:41.459Z,15.10
2019-01-19T06:14:11.656Z,13.50
2019-01-19T06:16:41.828Z,13.38
2019-01-19T06:19:12.285Z,12.87
2019-01-19T06:21:50.585Z,12.57
2019-01-19T06:24:20.775Z,12.68
2019-01-19T06:26:50.975Z,13.97
2019-01-19T06:29:21.171Z,13.30
2019-01-19T06:31:51.369Z,12.53
2019-01-19T06:34:21.583Z,11.88
2019-01-19T06:36:55.117Z,13.05
2019-01-19T06:39:23.792Z,12.25
2019-01-19T06:41:54.036Z,11.93
2019-01-19T06:44:24.247Z,11.10
2019-01-19T06:46:54.461Z,11.18
2019-01-19T06:49:24.637Z,11.77
2019-01-19T06:51:54.845Z,11.93
2019-01-19T06:54:26.433Z,10.38
2019-01-19T06:56:56.615Z,10.30
2019-01-19T06:59:26.812Z,11.45
2019-01-19T07:01:56.999Z,10.50
2019-01-19T07:04:27.239Z,11.47
2019-01-19T07:07:02.645Z,10.98
2019-01-19T07:09:29.327Z,10.90
2019-01-19T07:12:01.864Z,9.33
2019-01-19T07:14:32.095Z,9.77
2019-01-19T07:17:02.287Z,10.40
2019-01-19T07:19:32.687Z,10.45
2019-01-19T07:22:02.888Z,8.90
2019-01-19T07:24:33.067Z,9.70
2019-01-19T07:27:03.262Z,10.25
2019-01-19T07:29:33.455Z,8.95
2019-01-19T07:32:03.660Z,9.80
2019-01-19T07:34:33.852Z,9.40
2019-01-19T07:37:09.674Z,9.50
2019-01-19T07:39:35.937Z,10.53
2019-01-19T07:42:06.179Z,10.10
2019-01-19T07:44:36.357Z,9.48
2019-01-19T07:47:06.952Z,8.90
2019-01-19T07:49:37.180Z,8.90
2019-01-19T07:52:07.505Z,7.03
2019-01-19T07:54:37.695Z,8.20
2019-01-19T07:57:07.903Z,8.85
2019-01-19T07:59:38.101Z,8.30
2019-01-19T08:02:08.659Z,7.40
2019-01-19T08:04:38.840Z,8.43
2019-01-19T08:07:09.055Z,8.87
2019-01-19T08:09:39.277Z,7.33
2019-01-19T08:12:09.468Z,6.67
2019-01-19T08:14:39.689Z,8.13
2019-01-19T08:17:09.909Z,8.83
2019-01-19T08:19:40.084Z,7.75
2019-01-19T08:22:10.298Z,9.10
2019-01-19T08:24:41.488Z,9.40
2019-01-19T08:27:11.687Z,8.33
2019-01-19T08:29:41.895Z,8.80
2019-01-19T08:32:12.095Z,9.20
2019-01-19T08:34:42.297Z,7.70
2019-01-19T08:37:12.576Z,7.87
2019-01-19T08:39:43.601Z,8.60
2019-01-19T08:42:13.876Z,8.73
2019-01-19T08:44:44.184Z,6.97
2019-01-19T08:47:14.489Z,6.73
2019-01-19T08:49:44.704Z,6.77
2019-01-19T08:52:14.916Z,7.00
2019-01-19T08:54:45.080Z,7.43
2019-01-19T08:57:15.323Z,7.13
2019-01-19T08:59:45.513Z,6.73
2019-01-19T09:02:15.872Z,6.80
2019-01-19T09:04:46.272Z,8.20
2019-01-19T09:07:16.596Z,7.30
2019-01-19T09:09:46.843Z,7.13
2019-01-19T09:12:17.057Z,7.13
2019-01-19T09:14:47.275Z,7.50
2019-01-19T09:17:17.467Z,6.83
2019-01-19T09:19:47.711Z,7.73
2019-01-19T09:22:17.939Z,6.60
2019-01-19T09:24:48.220Z,6.63
2019-01-19T09:27:18.424Z,6.60
2019-01-19T09:29:48.623Z,6.30
2019-01-19T09:32:18.919Z,6.10
2019-01-19T09:34:49.159Z,6.13
2019-01-19T09:37:19.338Z,6.20
2019-01-19T09:39:49.571Z,5.23
2019-01-19T09:42:19.832Z,5.97
2019-01-19T09:44:50.047Z,5.23
2019-01-19T09:47:20.280Z,6.13
2019-01-19T09:49:50.468Z,5.60
2019-01-19T09:52:21.337Z,4.83
2019-01-19T09:54:51.649Z,5.23
2019-01-19T09:57:21.876Z,6.17
2019-01-19T09:59:52.060Z,5.10
2019-01-19T10:02:22.260Z,5.57
2019-01-19T10:04:52.440Z,4.63
2019-01-19T10:07:22.623Z,4.60
2019-01-19T10:09:52.859Z,6.20
2019-01-19T10:12:23.106Z,5.20
2019-01-19T10:14:53.290Z,4.23
2019-01-19T10:17:23.672Z,4.60
2019-01-19T10:19:53.852Z,4.37
2019-01-19T10:22:24.071Z,5.50
2019-01-19T10:24:54.295Z,4.53
2019-01-19T10:27:24.492Z,5.23
2019-01-19T10:29:54.684Z,4.60
2019-01-19T10:32:24.894Z,4.73
2019-01-19T10:34:55.107Z,4.90
2019-01-19T10:37:25.270Z,4.77
2019-01-19T10:39:55.426Z,4.50
2019-01-19T10:42:25.809Z,4.53
2019-01-19T10:44:57.091Z,4.63
2019-01-19T10:47:27.294Z,5.50
2019-01-19T10:49:57.592Z,4.70
2019-01-19T10:52:27.768Z,4.80
2019-01-19T10:54:57.911Z,4.73
2019-01-19T10:57:28.098Z,5.07
2019-01-19T10:59:58.250Z,4.67
2019-01-19T11:02:28.722Z,4.50
2019-01-19T11:05:00.281Z,4.60
2019-01-19T11:07:30.547Z,4.73
2019-01-19T11:10:00.823Z,4.90
2019-01-19T11:12:31.052Z,4.37
2019-01-19T11:15:01.235Z,5.13
2019-01-19T11:17:31.420Z,5.23
2019-01-19T11:20:01.572Z,4.63
2019-01-19T11:22:31.801Z,5.03
2019-01-19T11:25:02.062Z,5.53
2019-01-19T11:27:32.295Z,4.10
2019-01-19T11:30:02.655Z,4.20
2019-01-19T11:32:32.821Z,5.13
2019-01-19T11:35:03.011Z,4.40
2019-01-19T11:37:33.199Z,4.63
2019-01-19T11:40:03.374Z,5.00
2019-01-19T11:42:37.866Z,5.60
2019-01-19T11:45:09.166Z,4.03
2019-01-19T11:47:39.419Z,4.30
2019-01-19T11:50:09.846Z,5.30
2019-01-19T11:52:40.003Z,4.80
2019-01-19T11:55:12.152Z,5.90
2019-01-19T11:57:42.359Z,5.37
2019-01-19T12:00:15.919Z,3.80
2019-01-19T12:02:46.083Z,3.73
2019-01-19T12:05:16.280Z,4.70
2019-01-19T12:07:46.447Z,4.37
2019-01-19T12:10:19.504Z,4.10
2019-01-19T12:12:49.647Z,4.83
2019-01-19T12:15:19.870Z,5.00
2019-01-19T12:17:50.079Z,4.27
2019-01-19T12:20:25.901Z,4.57
2019-01-19T12:22:56.375Z,4.27
2019-01-19T12:25:26.762Z,4.20
2019-01-19T12:27:56.932Z,4.37
2019-01-19T12:30:30.719Z,3.83
2019-01-19T12:33:00.879Z,4.20
2019-01-19T12:35:31.417Z,3.87
2019-01-19T12:38:01.845Z,4.10
2019-01-19T12:40:32.243Z,4.30
2019-01-19T12:43:22.847Z,3.80
2019-01-19T12:46:07.231Z,3.80
2019-01-19T12:48:37.394Z,4.53
2019-01-19T12:51:09.939Z,4.80
2019-01-19T12:53:40.195Z,2.57
2019-01-19T12:56:10.363Z,4.43
2019-01-19T12:58:40.529Z,3.43
2019-01-19T13:01:10.709Z,3.80
2019-01-19T13:03:40.901Z,3.53
2019-01-19T13:06:40.228Z,3.87
2019-01-19T13:09:28.379Z,4.23
2019-01-19T13:12:44.654Z,4.27
2019-01-19T13:15:59.080Z,3.70
2019-01-19T13:19:15.370Z,3.83
2019-01-19T13:22:40.938Z,4.07
2019-01-19T13:26:00.290Z,4.53
2019-01-19T13:29:05.369Z,3.53
2019-01-19T13:32:15.832Z,3.70
2019-01-19T13:35:31.067Z,4.90
2019-01-19T13:38:46.106Z,4.40
2019-01-19T13:42:05.512Z,4.20
2019-01-19T13:45:15.767Z,3.90
2019-01-19T13:48:22.911Z,4.53
2019-01-19T13:51:31.322Z,3.93
2019-01-19T13:54:42.684Z,4.07
2019-01-19T13:57:52.895Z,4.57
2019-01-19T14:00:53.344Z,4.40
2019-01-19T14:04:05.025Z,3.40
2019-01-19T14:07:19.672Z,3.90
2019-01-19T14:10:15.070Z,3.70
2019-01-19T14:13:08.675Z,3.40
2019-01-19T14:16:10.603Z,3.07
2019-01-19T14:19:24.806Z,2.97
2019-01-19T14:22:24.000Z,3.90
2019-01-19T14:25:59.895Z,3.80
2019-01-19T14:29:02.061Z,3.30
2019-01-19T14:32:07.923Z,3.10
2019-01-19T14:34:53.999Z,3.67
2019-01-19T14:38:17.223Z,3.57
2019-01-19T14:41:18.317Z,3.70
2019-01-19T14:44:12.495Z,3.63
2019-01-19T14:47:13.638Z,3.47
2019-01-19T14:50:32.036Z,3.60
2019-01-19T14:53:30.043Z,3.60
2019-01-19T14:56:41.443Z,4.20
2019-01-19T14:59:43.518Z,4.07
2019-01-19T15:02:51.925Z,4.50
2019-01-19T15:05:44.557Z,4.20
2019-01-19T15:08:50.276Z,4.43
2019-01-19T15:11:57.644Z,4.70
2019-01-19T15:15:11.863Z,4.60
2019-01-19T15:18:23.384Z,4.57
2019-01-19T15:21:16.527Z,4.00
2019-01-19T15:24:18.298Z,4.40
2019-01-19T15:27:34.680Z,4.83
2019-01-19T15:30:34.472Z,3.90
2019-01-19T15:33:55.275Z,4.43
2019-01-19T15:37:02.289Z,4.83
2019-01-19T15:39:58.962Z,4.63
2019-01-19T15:42:42.243Z,5.03
2019-01-19T15:45:55.425Z,4.63
2019-01-19T15:48:59.888Z,3.70
2019-01-19T15:52:23.508Z,4.57
2019-01-19T15:55:37.404Z,5.30
2019-01-19T15:58:31.499Z,4.13
2019-01-19T16:01:40.663Z,7.20
2019-01-19T16:04:57.661Z,4.40
2019-01-19T16:07:54.297Z,5.27
2019-01-19T16:10:55.542Z,4.60
2019-01-19T16:14:01.000Z,5.07
2019-01-19T16:17:12.635Z,5.23
2019-01-19T16:20:27.160Z,5.00
2019-01-19T16:23:23.279Z,4.40
2019-01-19T16:26:37.344Z,5.30
2019-01-19T16:29:27.318Z,5.10
2019-01-19T16:32:25.411Z,5.47
2019-01-19T16:35:22.226Z,5.57
2019-01-19T16:38:15.383Z,4.80
2019-01-19T16:41:18.239Z,5.33
2019-01-19T16:44:38.692Z,5.00
2019-01-19T16:47:56.068Z,4.90
2019-01-19T16:50:57.433Z,3.97
2019-01-19T16:54:09.059Z,4.37
2019-01-19T16:57:35.723Z,4.73
2019-01-19T17:00:48.667Z,3.70
2019-01-19T17:03:41.128Z,4.67
2019-01-19T17:06:46.885Z,5.10
2019-01-19T17:09:42.448Z,4.40
2019-01-19T17:12:54.673Z,4.70
2019-01-19T17:16:24.317Z,4.60
2019-01-19T17:19:44.751Z,4.73
2019-01-19T17:23:01.420Z,4.30
2019-01-19T17:26:18.077Z,4.63
2019-01-19T17:29:06.355Z,5.00
2019-01-19T17:32:05.679Z,4.50
2019-01-19T17:35:15.473Z,4.60
2019-01-19T17:38:25.587Z,3.70
2019-01-19T17:41:41.866Z,4.77
2019-01-19T17:44:46.582Z,3.70
2019-01-19T17:47:35.330Z,3.87
2019-01-19T17:50:42.231Z,4.30
2019-01-19T17:53:29.941Z,4.20
2019-01-19T17:56:38.968Z,4.33
2019-01-19T17:59:39.172Z,3.70
2019-01-19T18:02:51.655Z,4.50
2019-01-19T18:05:51.306Z,4.50
2019-01-19T18:08:37.131Z,4.30
2019-01-19T18:11:33.193Z,3.73
2019-01-19T18:14:38.743Z,4.13
2019-01-19T18:17:58.332Z,3.50
2019-01-19T18:20:57.036Z,4.70
2019-01-19T18:24:03.179Z,3.60
2019-01-19T18:26:57.819Z,3.73
2019-01-19T18:30:08.324Z,3.80
2019-01-19T18:33:22.908Z,3.53
2019-01-19T18:36:39.120Z,3.60
2019-01-19T18:40:02.552Z,4.10
2019-01-19T18:43:10.482Z,4.43
2019-01-19T18:45:58.924Z,4.07
2019-01-19T18:48:58.341Z,3.87
2019-01-19T18:52:30.720Z,3.60
2019-01-19T18:55:42.800Z,3.80
2019-01-19T18:58:45.967Z,4.93
2019-01-19T19:01:50.018Z,4.10
2019-01-19T19:04:51.522Z,3.83
2019-01-19T19:07:52.719Z,4.00
2019-01-19T19:11:31.170Z,3.67
2019-01-19T19:15:00.747Z,3.77
2019-01-19T19:18:23.615Z,4.40
2019-01-19T19:21:25.002Z,4.53
2019-01-19T19:24:36.253Z,3.87
2019-01-19T19:27:49.449Z,4.03
2019-01-19T19:30:58.109Z,4.43
2019-01-19T19:33:54.276Z,4.50
2019-01-19T19:36:56.622Z,4.70
2019-01-19T19:39:42.562Z,4.77
2019-01-19T19:42:56.067Z,4.50
2019-01-19T19:45:44.346Z,4.50
2019-01-19T19:48:24.235Z,4.70
2019-01-19T19:51:44.852Z,4.20
2019-01-19T19:54:15.032Z,4.90
2019-01-19T19:56:43.635Z,5.67
2019-01-19T19:59:13.895Z,5.07
2019-01-19T20:01:44.188Z,5.00
2019-01-19T20:04:14.437Z,5.57
2019-01-19T20:06:44.643Z,5.50
2019-01-19T20:09:14.835Z,5.03
2019-01-19T20:11:45.020Z,4.77
2019-01-19T20:14:15.261Z,4.63
2019-01-19T20:16:45.456Z,5.27
2019-01-19T20:19:15.655Z,5.70
2019-01-19T20:21:45.959Z,5.00
2019-01-19T20:24:16.181Z,5.53
2019-01-19T20:26:46.358Z,5.83
2019-01-19T20:29:16.572Z,5.77
2019-01-19T20:31:47.828Z,5.23
2019-01-19T20:34:18.016Z,5.17
2019-01-19T20:36:48.578Z,5.53
2019-01-19T20:39:18.869Z,6.10
2019-01-19T20:41:49.085Z,6.20
2019-01-19T20:44:19.301Z,5.20
2019-01-19T20:46:49.523Z,6.13
2019-01-19T20:49:19.730Z,6.03
2019-01-19T20:51:50.004Z,5.60
2019-01-19T20:54:20.427Z,5.93
2019-01-19T20:56:50.643Z,6.40
2019-01-19T20:59:20.944Z,6.20
2019-01-19T21:01:51.189Z,6.10
2019-01-19T21:04:21.380Z,6.03
2019-01-19T21:06:51.617Z,5.27
2019-01-19T21:09:21.802Z,6.27
2019-01-19T21:11:52.008Z,6.47
2019-01-19T21:14:23.456Z,5.50
2019-01-19T21:16:53.824Z,6.17
2019-01-19T21:19:24.016Z,5.80
2019-01-19T21:21:54.210Z,5.93
2019-01-19T21:24:24.409Z,6.27
2019-01-19T21:26:54.651Z,6.67
2019-01-19T21:29:24.831Z,6.00
2019-01-19T21:31:55.059Z,5.67
2019-01-19T21:34:25.388Z,7.00
2019-01-19T21:36:55.590Z,6.43
2019-01-19T21:39:25.826Z,6.60
2019-01-19T21:41:56.014Z,6.23
2019-01-19T21:44:27.283Z,6.37
2019-01-19T21:46:57.514Z,5.97
2019-01-19T21:49:27.721Z,6.40
2019-01-19T21:51:57.921Z,6.20
2019-01-19T21:54:28.191Z,6.27
2019-01-19T21:56:59.451Z,6.07
2019-01-19T21:59:29.627Z,5.33
2019-01-19T22:01:59.814Z,6.40
2019-01-19T22:04:29.979Z,6.00
2019-01-19T22:07:00.164Z,6.33
2019-01-19T22:09:30.381Z,5.97
2019-01-19T22:12:00.536Z,6.07
2019-01-19T22:14:30.709Z,5.87
2019-01-19T22:17:00.861Z,6.20
2019-01-19T22:19:31.067Z,5.87
2019-01-19T22:22:01.362Z,6.30
2019-01-19T22:24:31.612Z,5.77
2019-01-19T22:27:02.303Z,5.20
2019-01-19T22:29:32.578Z,5.50
2019-01-19T22:32:02.951Z,6.10
2019-01-19T22:34:33.179Z,5.77
2019-01-19T22:37:03.398Z,5.87
2019-01-19T22:39:33.585Z,5.97
2019-01-19T22:42:03.779Z,6.03
2019-01-19T22:44:35.117Z,5.47
2019-01-19T22:47:05.284Z,5.78
2019-01-19T22:49:35.492Z,6.17
2019-01-19T22:52:06.032Z,6.03
2019-01-19T22:54:36.272Z,5.83
2019-01-19T22:57:06.745Z,5.60
2019-01-19T22:59:38.752Z,6.20
2019-01-19T23:02:11.617Z,6.20
2019-01-19T23:04:41.828Z,5.60
2019-01-19T23:07:12.208Z,5.90
2019-01-19T23:09:42.406Z,6.13
2019-01-19T23:12:12.680Z,5.20
2019-01-19T23:14:43.287Z,5.53
2019-01-19T23:17:13.491Z,5.20
2019-01-19T23:19:43.783Z,5.42
2019-01-19T23:22:14.007Z,6.10
2019-01-19T23:24:44.252Z,5.67
2019-01-19T23:27:14.493Z,6.27
2019-01-19T23:29:44.933Z,5.90
2019-01-19T23:32:15.194Z,5.70
2019-01-19T23:34:45.393Z,6.23
2019-01-19T23:37:15.616Z,6.10
2019-01-19T23:39:45.831Z,5.30
2019-01-19T23:42:16.092Z,6.60
2019-01-19T23:44:46.326Z,5.87
2019-01-19T23:47:16.501Z,6.30
2019-01-19T23:49:46.683Z,5.83
2019-01-19T23:52:16.904Z,5.67
2019-01-19T23:54:47.171Z,5.30
2019-01-19T23:57:17.381Z,5.57
2019-01-19T23:59:49.038Z,5.27
